KSFZ/SFZ METAR and TAF weather

Enter ICAO airport designator
Station Type Date Time Source
KSFZ METAR 2019/08/24 17:56 UTC NOAA

KSFZ 241756Z AUTO 03007KT 10SM BKN050 23/11 A3017 RMK AO2 SLP161 T02330111 10239 20156 55001


Station Type Date Time Source
KSFZ Decoded METAR 2019/08/24 17:56 UTC NOAA

Station name not available
Aug 24, 2019 - 01:56 PM EDT / 2019.08.24 1756 UTC
Wind: from the NNE (030 degrees) at 8 MPH (7 KT):0
Visibility: 10 mile(s):0
Sky conditions: mostly cloudy
Temperature: 73.9 F (23.3 C)
Dew Point: 52.0 F (11.1 C)
Relative Humidity: 46%
Pressure (altimeter): 30.17 in. Hg (1021 hPa)
Pressure tendency: 0.00 inches (0.1 hPa) lower than three hours ago
ob: KSFZ 241756Z AUTO 03007KT 10SM BKN050 23/11 A3017 RMK AO2 SLP161 T02330111 10239 20156 55001
cycle: 18

Station Type Date Time Source
KSFZ TAF UTC NOAA

Error!

Example: see airport list